createdAt,value
2018-11-04T12:34:04.752Z,19
2018-11-04T12:44:14.853Z,16
2018-11-04T12:54:22.909Z,18
2018-11-04T13:04:30.602Z,21
2018-11-04T13:14:39.900Z,17
2018-11-04T13:24:47.386Z,20
2018-11-04T13:34:55.036Z,19
2018-11-04T13:45:05.888Z,20
2018-11-04T13:55:14.380Z,21
2018-11-04T14:05:23.608Z,21
2018-11-04T14:15:34.191Z,21
2018-11-04T14:25:41.170Z,22
2018-11-04T14:35:50.188Z,25
2018-11-04T14:45:58.819Z,28
2018-11-04T14:56:07.177Z,22
2018-11-04T15:06:17.428Z,19
2018-11-04T15:16:25.441Z,21
2018-11-04T15:26:34.526Z,24
2018-11-04T15:36:43.783Z,23
2018-11-04T15:46:52.401Z,24
2018-11-04T15:57:01.449Z,27
2018-11-04T16:05:20.716Z,25
2018-11-04T16:15:28.654Z,1
2018-11-04T16:25:37.056Z,23
2018-11-04T16:35:47.429Z,27
2018-11-04T16:45:55.089Z,24
2018-11-04T16:56:03.725Z,40
2018-11-04T17:06:15.774Z,20
2018-11-04T17:16:21.161Z,20
2018-11-04T17:26:29.811Z,21
2018-11-04T17:36:42.190Z,19
2018-11-04T17:56:56.874Z,24
2018-11-04T18:08:20.597Z,28
2018-11-04T18:18:25.818Z,29
2018-11-04T18:28:34.989Z,25
2018-11-04T18:38:44.681Z,32
2018-11-04T18:48:53.231Z,31
2018-11-04T18:59:03.215Z,23
2018-11-04T19:09:10.500Z,23
2018-11-04T19:19:24.613Z,27
2018-11-04T19:29:30.407Z,27
2018-11-04T19:39:40.392Z,39
2018-11-04T19:49:46.571Z,33
2018-11-04T19:59:56.097Z,20
2018-11-04T20:10:03.608Z,24
2018-11-04T20:20:17.673Z,21
2018-11-04T20:30:23.676Z,19
2018-11-04T20:40:33.597Z,21
2018-11-04T20:50:40.811Z,25
2018-11-04T21:00:49.383Z,23
2018-11-04T21:10:58.690Z,24
2018-11-04T21:21:07.540Z,31
2018-11-04T21:30:30.652Z,19
2018-11-04T21:40:41.107Z,14
2018-11-04T21:50:50.550Z,14
2018-11-04T22:00:58.627Z,14
2018-11-04T22:11:08.049Z,13
2018-11-04T22:21:17.302Z,15
2018-11-04T22:31:24.303Z,11
2018-11-04T22:41:32.296Z,11
2018-11-04T22:51:40.448Z,9
2018-11-04T23:01:47.995Z,9
2018-11-04T23:11:56.390Z,8
2018-11-04T23:22:04.591Z,8
2018-11-04T23:32:14.014Z,7
2018-11-04T23:42:22.108Z,9
2018-11-04T23:52:30.340Z,8
